WXM80 ListenWXM80 Stop

You find our weather info also at:

UK Metoffice

WeatherCloud

Weather Underground

Northeastern Weather Network

AWEKAS

Citizen Weather Observer Program (CWOP)

HAMweather, WeatherForYou, PWS Weather


Weather Underground History page Text

Daily Summary for November 10, 2017 Units:  English    Metric   Both
« Previous Day
Next Day »
Daily Weekly Monthly Yearly Custom
  High: Low: Average:
Temperature: 52.2 °F 27.2 °F 38.8 °F
Dew Point: 50.1 °F 11.8 °F 26.2 °F
Humidity: 93 % 44 % 61 %
Wind Speed: 14.5 mph 0.0 mph 6.7 mph
Wind Gust: 29.0 mph - -
Wind:- - WSW
Pressure: 30.47 in 29.89 in -
Precipitation: 0.00 in    
Historical Graphs
 
 
Tabular Data for November 10, 2017
Time Temperature Dew Point Pressure Wind Wind Speed Wind Gust Humidity Rainfall Rate (Hourly)
00:02 51.4 °F 49.4 °F 29.92 in Calm   3.5 mph 93 % 0.00 in
00:07 51.5 °F 49.5 °F 29.91 in SW 2.4 mph 3.5 mph 93 % 0.00 in
00:12 51.7 °F 49.7 °F 29.91 in SW 0.6 mph 2.3 mph 93 % 0.00 in
00:17 51.8 °F 49.8 °F 29.91 in SSW 5.1 mph 9.2 mph 93 % 0.00 in
00:22 51.9 °F 49.9 °F 29.91 in WSW 5.9 mph 11.5 mph 93 % 0.00 in
00:27 52.1 °F 50.1 °F 29.91 in WSW 6.1 mph 11.5 mph 93 % 0.00 in
00:32 52.2 °F 49.9 °F 29.91 in WSW 3.9 mph 10.4 mph 92 % 0.00 in
00:37 52.2 °F 49.9 °F 29.91 in SSW 3.1 mph 5.0 mph 92 % 0.00 in
00:42 52.2 °F 49.9 °F 29.91 in SSW 2.0 mph 5.0 mph 92 % 0.00 in
00:47 52.2 °F 49.9 °F 29.91 in SSW 4.0 mph 11.5 mph 92 % 0.00 in
00:52 52.2 °F 49.9 °F 29.90 in WSW 2.0 mph 9.2 mph 92 % 0.00 in
00:57 52.1 °F 49.8 °F 29.90 in SSW 5.1 mph 11.5 mph 92 % 0.00 in
01:02 52.1 °F 49.8 °F 29.90 in SSW 4.3 mph 9.2 mph 92 % 0.00 in
01:07 52.1 °F 49.8 °F 29.91 in SSW 2.1 mph 4.6 mph 92 % 0.00 in
01:12 52.0 °F 49.7 °F 29.90 in SSW 7.1 mph 11.5 mph 92 % 0.00 in
01:17 52.0 °F 49.7 °F 29.90 in WSW 3.5 mph 6.9 mph 92 % 0.00 in
01:22 52.0 °F 49.7 °F 29.91 in West 5.2 mph 5.8 mph 92 % 0.00 in
01:27 52.0 °F 49.7 °F 29.91 in West 6.4 mph 10.0 mph 92 % 0.00 in
01:32 51.9 °F 49.6 °F 29.90 in SSW 8.5 mph 17.3 mph 92 % 0.00 in
01:37 51.8 °F 49.5 °F 29.90 in SSW 6.9 mph 8.1 mph 92 % 0.00 in
01:42 51.7 °F 49.5 °F 29.90 in WNW 3.3 mph 4.6 mph 92 % 0.00 in
01:47 51.7 °F 49.5 °F 29.90 in WNW 7.9 mph 16.0 mph 92 % 0.00 in
01:53 51.5 °F 49.0 °F 29.90 in WSW 4.3 mph 6.9 mph 91 % 0.00 in
01:58 51.5 °F 49.0 °F 29.90 in SW 4.6 mph 8.0 mph 91 % 0.00 in
02:03 51.3 °F 48.8 °F 29.90 in SW 3.6 mph 10.4 mph 91 % 0.00 in
02:08 51.1 °F 48.6 °F 29.90 in SW 5.1 mph 8.1 mph 91 % 0.00 in
02:13 51.0 °F 48.2 °F 29.90 in SW 3.2 mph 8.1 mph 90 % 0.00 in
02:18 50.8 °F 48.0 °F 29.90 in WSW 2.9 mph 7.0 mph 90 % 0.00 in
02:20 50.6 °F 47.5 °F 29.90 in SSW 3.8 mph 6.9 mph 89 % 0.00 in
02:25 50.5 °F 47.4 °F 29.90 in WSW 3.1 mph 9.2 mph 89 % 0.00 in
02:30 50.3 °F 47.2 °F 29.90 in WSW 2.2 mph 3.0 mph 89 % 0.00 in
02:35 50.1 °F 46.7 °F 29.90 in SW 3.5 mph 6.9 mph 88 % 0.00 in
02:40 49.9 °F 46.8 °F 29.90 in SSW 2.9 mph 10.4 mph 89 % 0.00 in
02:45 49.7 °F 46.6 °F 29.90 in SW 8.3 mph 11.5 mph 89 % 0.00 in
02:50 49.6 °F 46.2 °F 29.90 in SW 3.9 mph 7.0 mph 88 % 0.00 in
02:55 49.5 °F 46.1 °F 29.90 in SW 4.5 mph 11.5 mph 88 % 0.00 in
03:00 49.4 °F 46.0 °F 29.90 in West 4.7 mph 10.4 mph 88 % 0.00 in
03:05 49.2 °F 45.8 °F 29.90 in SW 5.5 mph 10.0 mph 88 % 0.00 in
03:10 49.2 °F 45.5 °F 29.89 in SSW 5.9 mph 6.9 mph 87 % 0.00 in
03:15 49.1 °F 45.4 °F 29.90 in SSW 6.0 mph 8.1 mph 87 % 0.00 in
03:20 49.0 °F 45.3 °F 29.90 in SW 5.0 mph 8.1 mph 87 % 0.00 in
03:25 48.9 °F 44.9 °F 29.89 in SSW 4.5 mph 10.4 mph 86 % 0.00 in
03:30 48.8 °F 44.8 °F 29.90 in WSW 3.8 mph 8.1 mph 86 % 0.00 in
03:35 48.8 °F 44.8 °F 29.90 in SW 1.0 mph 5.0 mph 86 % 0.00 in
03:40 48.7 °F 44.7 °F 29.90 in WSW 1.4 mph 9.2 mph 86 % 0.00 in
03:45 48.7 °F 44.7 °F 29.90 in NW 2.1 mph 3.5 mph 86 % 0.00 in
03:50 48.6 °F 44.6 °F 29.90 in West 5.7 mph 9.2 mph 86 % 0.00 in
03:55 48.6 °F 44.6 °F 29.91 in WNW 0.8 mph 11.5 mph 86 % 0.00 in
04:00 48.6 °F 44.6 °F 29.91 in NW 3.7 mph 11.5 mph 86 % 0.00 in
04:05 48.6 °F 44.6 °F 29.92 in WSW 5.2 mph 9.2 mph 86 % 0.00 in
04:10 48.5 °F 44.5 °F 29.92 in NW 6.4 mph 15.0 mph 86 % 0.00 in
04:15 48.6 °F 44.3 °F 29.92 in West 6.8 mph 13.8 mph 85 % 0.00 in
04:20 48.7 °F 44.1 °F 29.92 in SW 6.1 mph 11.5 mph 84 % 0.00 in
04:25 48.7 °F 44.1 °F 29.92 in West 8.9 mph 13.8 mph 84 % 0.00 in
04:30 48.8 °F 44.2 °F 29.92 in WNW 6.7 mph 11.5 mph 84 % 0.00 in
04:35 48.8 °F 44.2 °F 29.93 in NNE 3.9 mph 11.5 mph 84 % 0.00 in
04:40 48.8 °F 44.2 °F 29.93 in WNW 12.0 mph 25.3 mph 84 % 0.00 in
04:45 48.7 °F 42.8 °F 29.94 in WNW 9.1 mph 17.0 mph 80 % 0.00 in
04:50 48.5 °F 41.6 °F 29.95 in WSW 6.7 mph 17.3 mph 77 % 0.00 in
04:55 48.4 °F 41.5 °F 29.95 in NW 6.6 mph 11.5 mph 77 % 0.00 in
05:00 48.2 °F 39.9 °F 29.95 in WSW 9.0 mph 20.7 mph 73 % 0.00 in
05:05 48.0 °F 39.8 °F 29.96 in West 6.8 mph 15.0 mph 73 % 0.00 in
05:10 47.8 °F 39.2 °F 29.96 in West 5.0 mph 11.5 mph 72 % 0.00 in
05:15 47.4 °F 38.8 °F 29.96 in WNW 9.5 mph 19.6 mph 72 % 0.00 in
05:20 47.2 °F 38.6 °F 29.96 in NNE 10.0 mph 13.8 mph 72 % 0.00 in
05:25 46.9 °F 38.3 °F 29.97 in NNW 5.6 mph 13.8 mph 72 % 0.00 in
05:30 46.6 °F 38.1 °F 29.97 in North 8.3 mph 13.8 mph 72 % 0.00 in
05:35 46.4 °F 37.9 °F 29.98 in NNW 8.0 mph 12.7 mph 72 % 0.00 in
05:40 46.1 °F 37.2 °F 29.97 in WNW 8.7 mph 16.1 mph 71 % 0.00 in
05:45 45.9 °F 37.0 °F 29.98 in WNW 5.9 mph 15.0 mph 71 % 0.00 in
05:50 45.7 °F 36.1 °F 29.98 in North 7.8 mph 13.8 mph 69 % 0.00 in
05:55 45.6 °F 36.7 °F 29.98 in NNW 7.1 mph 11.5 mph 71 % 0.00 in
06:00 45.4 °F 36.9 °F 29.99 in NW 8.2 mph 11.5 mph 72 % 0.00 in
06:05 45.2 °F 36.4 °F 30.00 in WNW 4.4 mph 11.5 mph 71 % 0.00 in
06:10 45.1 °F 37.0 °F 30.00 in WNW 9.7 mph 16.1 mph 73 % 0.00 in
06:15 45.0 °F 36.5 °F 30.00 in NW 7.9 mph 18.4 mph 72 % 0.00 in
06:20 44.8 °F 35.6 °F 30.00 in WSW 10.9 mph 19.6 mph 70 % 0.00 in
06:25 44.6 °F 35.4 °F 30.00 in NW 7.7 mph 17.3 mph 70 % 0.00 in
06:30 44.5 °F 35.7 °F 30.00 in NNE 5.9 mph 16.1 mph 71 % 0.00 in
06:35 44.3 °F 35.1 °F 30.01 in NNW 7.2 mph 10.4 mph 70 % 0.00 in
06:40 44.1 °F 34.9 °F 30.01 in WSW 8.4 mph 12.0 mph 70 % 0.00 in
06:45 44.0 °F 34.8 °F 30.02 in WNW 10.1 mph 15.0 mph 70 % 0.00 in
06:50 43.7 °F 34.2 °F 30.03 in North 7.0 mph 13.0 mph 69 % 0.00 in
06:55 43.5 °F 34.0 °F 30.03 in WNW 7.6 mph 15.0 mph 69 % 0.00 in
07:00 43.3 °F 33.1 °F 30.04 in NW 11.9 mph 19.6 mph 67 % 0.00 in
07:05 43.0 °F 32.4 °F 30.05 in West 8.2 mph 15.0 mph 66 % 0.00 in
07:10 42.6 °F 31.7 °F 30.05 in North 8.5 mph 16.1 mph 65 % 0.00 in
07:15 42.3 °F 31.7 °F 30.06 in NNE 8.5 mph 17.3 mph 66 % 0.00 in
07:20 41.9 °F 31.0 °F 30.06 in NW 8.1 mph 15.0 mph 65 % 0.00 in
07:25 41.5 °F 30.6 °F 30.06 in NNW 7.4 mph 10.4 mph 65 % 0.00 in
07:30 41.3 °F 28.9 °F 30.07 in WNW 14.5 mph 24.2 mph 61 % 0.00 in
07:35 41.0 °F 27.8 °F 30.07 in SSW 10.6 mph 17.3 mph 59 % 0.00 in
07:40 40.7 °F 27.9 °F 30.08 in NNE 9.0 mph 20.7 mph 60 % 0.00 in
07:45 40.5 °F 28.9 °F 30.07 in WSW 7.5 mph 16.1 mph 63 % 0.00 in
07:50 40.4 °F 27.2 °F 30.09 in WNW 12.0 mph 20.7 mph 59 % 0.00 in
07:56 40.1 °F 25.6 °F 30.09 in NNW 5.9 mph 18.4 mph 56 % 0.00 in
08:01 39.9 °F 24.1 °F 30.10 in West 11.1 mph 24.2 mph 53 % 0.00 in
08:06 39.6 °F 23.9 °F 30.10 in WNW 10.0 mph 24.0 mph 53 % 0.00 in
08:11 39.4 °F 24.6 °F 30.11 in NW 5.3 mph 12.7 mph 55 % 0.00 in
08:16 39.3 °F 24.0 °F 30.10 in North 7.8 mph 18.4 mph 54 % 0.00 in
08:21 39.2 °F 24.8 °F 30.11 in West 8.0 mph 13.0 mph 56 % 0.00 in
08:26 39.2 °F 24.8 °F 30.12 in WNW 6.0 mph 18.0 mph 56 % 0.00 in
08:31 39.2 °F 24.8 °F 30.12 in NW 6.0 mph 16.0 mph 56 % 0.00 in
08:36 39.4 °F 25.4 °F 30.12 in WNW 7.0 mph 20.0 mph 57 % 0.00 in
08:41 39.8 °F 25.4 °F 30.12 in NW 7.0 mph 20.0 mph 56 % 0.00 in
08:46 40.1 °F 25.2 °F 30.12 in NW 9.0 mph 20.0 mph 55 % 0.00 in
08:51 40.2 °F 24.4 °F 30.13 in NW 8.0 mph 16.0 mph 53 % 0.00 in
08:56 40.4 °F 25.0 °F 30.13 in NW 7.0 mph 16.0 mph 54 % 0.00 in
09:01 40.6 °F 24.8 °F 30.13 in NW 8.3 mph 13.8 mph 53 % 0.00 in
09:06 40.7 °F 23.0 °F 30.13 in NW 9.9 mph 21.9 mph 49 % 0.00 in
09:11 40.8 °F 24.5 °F 30.13 in NW 9.2 mph 19.6 mph 52 % 0.00 in
09:16 40.9 °F 23.2 °F 30.13 in NW 9.5 mph 14.0 mph 49 % 0.00 in
09:21 41.1 °F 24.3 °F 30.14 in NW 6.5 mph 13.8 mph 51 % 0.00 in
09:26 41.3 °F 23.1 °F 30.13 in NW 6.6 mph 17.3 mph 48 % 0.00 in
09:31 41.5 °F 23.7 °F 30.13 in NNW 8.6 mph 17.3 mph 49 % 0.00 in
09:36 41.9 °F 25.1 °F 30.14 in NNW 8.6 mph 13.8 mph 51 % 0.00 in
09:39 42.2 °F 25.3 °F 30.14 in NNE 5.4 mph 12.0 mph 51 % 0.00 in
09:44 42.6 °F 27.1 °F 30.14 in WNW 6.5 mph 11.5 mph 54 % 0.00 in
09:49 42.6 °F 24.8 °F 30.14 in West 5.5 mph 13.8 mph 49 % 0.00 in
09:54 42.7 °F 24.4 °F 30.14 in NNW 9.5 mph 15.0 mph 48 % 0.00 in
09:59 42.9 °F 26.0 °F 30.15 in NW 9.7 mph 15.0 mph 51 % 0.00 in
10:04 42.6 °F 25.7 °F 30.14 in NW 8.7 mph 15.0 mph 51 % 0.00 in
10:10 42.4 °F 26.0 °F 30.15 in NNW 7.2 mph 19.6 mph 52 % 0.00 in
10:15 42.4 °F 25.5 °F 30.15 in NW 6.1 mph 17.3 mph 51 % 0.00 in
10:20 42.7 °F 25.3 °F 30.16 in WNW 8.0 mph 13.8 mph 50 % 0.00 in
10:25 42.5 °F 24.7 °F 30.16 in NE 12.8 mph 23.0 mph 49 % 0.00 in
10:30 42.0 °F 24.7 °F 30.16 in NNW 10.7 mph 19.6 mph 50 % 0.00 in
10:35 41.6 °F 22.8 °F 30.16 in NW 5.7 mph 10.4 mph 47 % 0.00 in
10:40 41.4 °F 23.2 °F 30.16 in North 6.7 mph 14.0 mph 48 % 0.00 in
10:45 41.2 °F 22.5 °F 30.16 in NW 10.3 mph 20.0 mph 47 % 0.00 in
10:50 41.0 °F 23.8 °F 30.17 in West 5.7 mph 16.1 mph 50 % 0.00 in
10:55 41.0 °F 24.2 °F 30.17 in WNW 4.0 mph 10.4 mph 51 % 0.00 in
11:00 40.8 °F 23.1 °F 30.17 in WNW 8.0 mph 18.4 mph 49 % 0.00 in
11:05 40.6 °F 22.9 °F 30.17 in WNW 9.8 mph 25.3 mph 49 % 0.00 in
11:10 40.4 °F 23.7 °F 30.17 in West 6.9 mph 11.5 mph 51 % 0.00 in
11:15 40.2 °F 23.0 °F 30.17 in NW 7.1 mph 12.7 mph 50 % 0.00 in
11:20 39.9 °F 23.2 °F 30.17 in North 5.4 mph 16.0 mph 51 % 0.00 in
11:26 39.7 °F 23.0 °F 30.17 in NW 6.0 mph 16.0 mph 51 % 0.00 in
11:31 39.4 °F 23.2 °F 30.17 in NW 12.0 mph 29.0 mph 52 % 0.00 in
11:36 39.2 °F 23.0 °F 30.17 in NW 7.0 mph 15.0 mph 52 % 0.00 in
11:41 39.1 °F 22.9 °F 30.17 in North 6.0 mph 10.4 mph 52 % 0.00 in
11:46 38.9 °F 24.1 °F 30.17 in NNW 3.0 mph 15.0 mph 55 % 0.00 in
11:51 38.7 °F 24.8 °F 30.18 in North 5.2 mph 8.0 mph 57 % 0.00 in
11:56 38.5 °F 24.6 °F 30.18 in NNE 7.9 mph 15.0 mph 57 % 0.00 in
12:01 38.2 °F 23.9 °F 30.18 in WNW 10.4 mph 19.6 mph 56 % 0.00 in
12:06 38.1 °F 24.2 °F 30.18 in NNW 7.0 mph 18.4 mph 57 % 0.00 in
12:11 38.1 °F 22.9 °F 30.18 in WNW 7.5 mph 20.0 mph 54 % 0.00 in
12:16 37.9 °F 21.8 °F 30.19 in NNW 8.0 mph 20.0 mph 52 % 0.00 in
12:21 37.8 °F 23.1 °F 30.19 in NNW 9.7 mph 16.1 mph 55 % 0.00 in
12:26 37.9 °F 23.2 °F 30.19 in North 8.5 mph 13.0 mph 55 % 0.00 in
12:31 37.8 °F 22.7 °F 30.19 in NW 8.0 mph 20.0 mph 54 % 0.00 in
12:36 37.8 °F 21.7 °F 30.20 in NW 8.0 mph 20.0 mph 52 % 0.00 in
12:41 37.6 °F 22.0 °F 30.20 in WNW 6.0 mph 14.0 mph 53 % 0.00 in
12:46 37.6 °F 21.1 °F 30.20 in WNW 7.0 mph 15.0 mph 51 % 0.00 in
12:51 37.4 °F 20.9 °F 30.21 in WNW 7.0 mph 18.0 mph 51 % 0.00 in
12:56 37.2 °F 20.2 °F 30.21 in WNW 13.0 mph 23.0 mph 50 % 0.00 in
13:01 37.0 °F 20.5 °F 30.21 in NNE 7.7 mph 11.5 mph 51 % 0.00 in
13:06 37.0 °F 19.6 °F 30.20 in WNW 9.7 mph 17.3 mph 49 % 0.00 in
13:11 36.9 °F 19.0 °F 30.20 in NW 6.0 mph 14.0 mph 48 % 0.00 in
13:16 37.1 °F 20.6 °F 30.21 in NW 8.0 mph 20.0 mph 51 % 0.00 in
13:21 37.3 °F 21.3 °F 30.21 in NW 7.0 mph 15.0 mph 52 % 0.00 in
13:26 37.6 °F 20.6 °F 30.20 in NW 10.0 mph 18.0 mph 50 % 0.00 in
13:31 37.7 °F 19.8 °F 30.21 in NW 8.0 mph 16.0 mph 48 % 0.00 in
13:36 37.7 °F 20.7 °F 30.21 in NNW 8.0 mph 15.0 mph 50 % 0.00 in
13:41 37.9 °F 21.3 °F 30.21 in NW 7.0 mph 14.0 mph 51 % 0.00 in
13:46 37.9 °F 20.0 °F 30.21 in NW 8.0 mph 16.0 mph 48 % 0.00 in
13:51 38.0 °F 19.0 °F 30.21 in WNW 6.0 mph 13.8 mph 46 % 0.00 in
13:56 38.1 °F 18.1 °F 30.21 in WNW 5.4 mph 12.7 mph 44 % 0.00 in
14:01 38.0 °F 19.5 °F 30.21 in North 4.4 mph 12.7 mph 47 % 0.00 in
14:06 38.0 °F 19.5 °F 30.21 in North 6.0 mph 15.0 mph 47 % 0.00 in
14:11 37.8 °F 18.8 °F 30.21 in NNW 3.0 mph 9.0 mph 46 % 0.00 in
14:16 37.7 °F 20.2 °F 30.21 in NNW 7.0 mph 18.0 mph 49 % 0.00 in
14:21 37.5 °F 19.6 °F 30.21 in NNW 6.0 mph 21.0 mph 48 % 0.00 in
14:26 37.3 °F 19.4 °F 30.22 in NNW 7.0 mph 17.0 mph 48 % 0.00 in
14:31 37.1 °F 19.2 °F 30.22 in NNW 6.0 mph 15.0 mph 48 % 0.00 in
14:36 36.9 °F 17.0 °F 30.22 in NNW 7.0 mph 20.0 mph 44 % 0.00 in
14:41 36.7 °F 17.3 °F 30.23 in NW 6.0 mph 12.0 mph 45 % 0.00 in
14:46 36.5 °F 17.1 °F 30.23 in NNW 7.0 mph 14.0 mph 45 % 0.00 in
14:51 36.3 °F 17.5 °F 30.23 in NNW 7.0 mph 16.0 mph 46 % 0.00 in
14:56 36.1 °F 16.8 °F 30.24 in NW 5.0 mph 20.0 mph 45 % 0.00 in
15:01 36.0 °F 19.6 °F 30.24 in NE 9.0 mph 12.0 mph 51 % 0.00 in
15:06 35.8 °F 18.0 °F 30.24 in North 3.9 mph 9.2 mph 48 % 0.00 in
15:11 35.7 °F 17.9 °F 30.24 in NNE 6.4 mph 13.8 mph 48 % 0.00 in
15:16 35.5 °F 17.7 °F 30.25 in NNW 4.4 mph 11.5 mph 48 % 0.00 in
15:21 35.5 °F 18.2 °F 30.25 in NNW 8.7 mph 16.1 mph 49 % 0.00 in
15:26 35.4 °F 18.1 °F 30.26 in NE 8.7 mph 20.7 mph 49 % 0.00 in
15:31 35.3 °F 17.5 °F 30.26 in NNE 10.4 mph 16.1 mph 48 % 0.00 in
15:36 35.1 °F 16.9 °F 30.27 in WNW 11.0 mph 24.2 mph 47 % 0.00 in
15:41 35.0 °F 17.3 °F 30.27 in NNE 10.5 mph 18.4 mph 48 % 0.00 in
15:46 34.8 °F 15.6 °F 30.27 in North 6.8 mph 19.6 mph 45 % 0.00 in
15:51 34.6 °F 15.9 °F 30.27 in North 8.3 mph 19.0 mph 46 % 0.00 in
15:56 34.4 °F 15.7 °F 30.28 in NNW 8.0 mph 10.0 mph 46 % 0.00 in
16:01 34.2 °F 14.5 °F 30.28 in NNE 7.2 mph 15.0 mph 44 % 0.00 in
16:07 34.1 °F 14.9 °F 30.30 in NW 6.8 mph 11.5 mph 45 % 0.00 in
16:12 34.0 °F 14.3 °F 30.30 in NNW 7.3 mph 15.0 mph 44 % 0.00 in
16:17 33.8 °F 15.7 °F 30.30 in NNW 7.3 mph 15.0 mph 47 % 0.00 in
16:22 33.8 °F 15.7 °F 30.30 in North 8.2 mph 11.5 mph 47 % 0.00 in
16:27 33.7 °F 16.5 °F 30.30 in NE 7.0 mph 14.0 mph 49 % 0.00 in
16:32 33.6 °F 14.5 °F 30.30 in NNE 8.4 mph 15.0 mph 45 % 0.00 in
16:37 33.5 °F 14.4 °F 30.30 in North 13.3 mph 19.6 mph 45 % 0.00 in
16:42 33.4 °F 15.8 °F 30.31 in North 10.2 mph 13.8 mph 48 % 0.00 in
16:47 33.3 °F 15.7 °F 30.31 in North 6.6 mph 12.0 mph 48 % 0.00 in
16:52 33.2 °F 15.6 °F 30.31 in North 4.9 mph 9.2 mph 48 % 0.00 in
16:57 33.0 °F 14.4 °F 30.32 in WNW 9.9 mph 16.1 mph 46 % 0.00 in
17:02 32.8 °F 15.7 °F 30.33 in NNW 5.6 mph 11.5 mph 49 % 0.00 in
17:07 32.7 °F 15.6 °F 30.33 in NNW 8.5 mph 17.3 mph 49 % 0.00 in
17:12 32.6 °F 16.0 °F 30.34 in West 5.0 mph 12.7 mph 50 % 0.00 in
17:17 32.5 °F 15.9 °F 30.34 in NNE 10.4 mph 20.7 mph 50 % 0.00 in
17:22 32.4 °F 16.7 °F 30.34 in North 7.5 mph 15.0 mph 52 % 0.00 in
17:27 32.3 °F 15.7 °F 30.35 in NNE 6.9 mph 12.7 mph 50 % 0.00 in
17:32 32.2 °F 15.2 °F 30.36 in NNW 7.4 mph 18.4 mph 49 % 0.00 in
17:38 32.0 °F 15.0 °F 30.36 in NW 7.4 mph 13.8 mph 49 % 0.00 in
17:43 31.8 °F 14.8 °F 30.36 in NNW 5.6 mph 10.4 mph 49 % 0.00 in
17:48 31.7 °F 14.2 °F 30.36 in NW 9.6 mph 17.3 mph 48 % 0.00 in
17:53 31.5 °F 14.5 °F 30.37 in NW 4.3 mph 8.1 mph 49 % 0.00 in
17:58 31.4 °F 14.4 °F 30.37 in NW 4.2 mph 18.4 mph 49 % 0.00 in
18:03 31.2 °F 14.7 °F 30.38 in NNW 8.4 mph 12.7 mph 50 % 0.00 in
18:08 31.1 °F 14.6 °F 30.38 in West 10.6 mph 19.6 mph 50 % 0.00 in
18:13 31.0 °F 15.0 °F 30.39 in West 7.0 mph 13.8 mph 51 % 0.00 in
18:18 30.9 °F 14.4 °F 30.39 in NW 10.2 mph 17.3 mph 50 % 0.00 in
18:23 30.8 °F 14.8 °F 30.39 in NE 7.5 mph 13.8 mph 51 % 0.00 in
18:28 30.7 °F 15.1 °F 30.40 in NW 7.0 mph 17.3 mph 52 % 0.00 in
18:33 30.5 °F 14.9 °F 30.40 in NW 5.7 mph 16.1 mph 52 % 0.00 in
18:38 30.4 °F 14.4 °F 30.41 in WNW 6.0 mph 15.0 mph 51 % 0.00 in
18:43 30.3 °F 14.3 °F 30.40 in NNW 7.3 mph 12.7 mph 51 % 0.00 in
18:48 30.1 °F 13.7 °F 30.40 in NNW 6.1 mph 15.0 mph 50 % 0.00 in
18:53 30.0 °F 12.7 °F 30.41 in NNW 6.5 mph 12.0 mph 48 % 0.00 in
18:58 29.9 °F 13.0 °F 30.41 in ENE 6.6 mph 19.0 mph 49 % 0.00 in
19:03 29.7 °F 13.3 °F 30.42 in NNW 6.9 mph 11.5 mph 50 % 0.00 in
19:08 29.7 °F 12.8 °F 30.42 in WNW 5.3 mph 10.4 mph 49 % 0.00 in
19:13 29.6 °F 12.8 °F 30.42 in NNW 7.2 mph 18.4 mph 49 % 0.00 in
19:18 29.6 °F 13.2 °F 30.41 in NNW 8.6 mph 18.4 mph 50 % 0.00 in
19:23 29.6 °F 13.2 °F 30.42 in North 11.9 mph 16.0 mph 50 % 0.00 in
19:28 29.5 °F 14.0 °F 30.42 in WNW 3.3 mph 8.1 mph 52 % 0.00 in
19:33 29.5 °F 15.3 °F 30.43 in NNE 6.1 mph 10.4 mph 55 % 0.00 in
19:38 29.5 °F 14.0 °F 30.43 in North 6.7 mph 8.1 mph 52 % 0.00 in
19:43 29.3 °F 12.9 °F 30.43 in NNW 6.2 mph 10.4 mph 50 % 0.00 in
19:49 29.2 °F 12.4 °F 30.45 in North 5.6 mph 12.7 mph 49 % 0.00 in
19:54 29.1 °F 12.3 °F 30.44 in WNW 7.9 mph 13.8 mph 49 % 0.00 in
19:59 29.0 °F 12.7 °F 30.44 in WNW 6.6 mph 11.5 mph 50 % 0.00 in
20:04 28.9 °F 12.6 °F 30.44 in WNW 8.2 mph 15.0 mph 50 % 0.00 in
20:09 28.8 °F 12.5 °F 30.44 in WNW 3.6 mph 14.0 mph 50 % 0.00 in
20:14 28.7 °F 11.9 °F 30.44 in North 9.1 mph 15.0 mph 49 % 0.00 in
20:19 28.6 °F 11.8 °F 30.44 in NNE 4.7 mph 9.2 mph 49 % 0.00 in
20:24 28.6 °F 13.2 °F 30.44 in WNW 6.4 mph 10.4 mph 52 % 0.00 in
20:30 28.5 °F 13.5 °F 30.45 in NNW 5.2 mph 6.9 mph 53 % 0.00 in
20:35 28.5 °F 13.1 °F 30.45 in NNW 5.3 mph 8.1 mph 52 % 0.00 in
20:40 28.4 °F 13.9 °F 30.45 in NW 5.9 mph 11.0 mph 54 % 0.00 in
20:45 28.3 °F 12.9 °F 30.45 in North 4.6 mph 9.2 mph 52 % 0.00 in
20:50 28.3 °F 13.3 °F 30.46 in NNE 6.1 mph 11.5 mph 53 % 0.00 in
20:55 28.2 °F 14.1 °F 30.46 in NNE 7.2 mph 15.0 mph 55 % 0.00 in
21:00 28.2 °F 13.7 °F 30.46 in NNW 6.9 mph 11.5 mph 54 % 0.00 in
21:05 28.1 °F 13.6 °F 30.45 in NNW 4.0 mph 10.4 mph 54 % 0.00 in
21:10 28.1 °F 14.0 °F 30.46 in North 8.4 mph 16.1 mph 55 % 0.00 in
21:15 28.0 °F 13.1 °F 30.46 in NE 5.8 mph 8.1 mph 53 % 0.00 in
21:20 28.0 °F 13.1 °F 30.46 in NNE 7.7 mph 17.3 mph 53 % 0.00 in
21:25 28.0 °F 15.1 °F 30.46 in WNW 5.9 mph 10.4 mph 58 % 0.00 in
21:30 27.9 °F 13.8 °F 30.46 in NNE 4.5 mph 9.2 mph 55 % 0.00 in
21:35 27.9 °F 13.8 °F 30.46 in ENE 4.0 mph 11.5 mph 55 % 0.00 in
21:40 27.8 °F 13.3 °F 30.46 in North 7.7 mph 13.8 mph 54 % 0.00 in
21:45 27.8 °F 14.1 °F 30.46 in NNW 7.4 mph 15.0 mph 56 % 0.00 in
21:50 27.8 °F 14.1 °F 30.46 in WNW 6.0 mph 12.0 mph 56 % 0.00 in
21:56 27.7 °F 13.6 °F 30.47 in NNW 6.0 mph 15.0 mph 55 % 0.00 in
22:01 27.7 °F 13.2 °F 30.46 in NNW 6.2 mph 15.0 mph 54 % 0.00 in
22:06 27.7 °F 13.6 °F 30.47 in NNW 3.0 mph 12.7 mph 55 % 0.00 in
22:17 27.6 °F 14.3 °F 30.47 in NNE 3.2 mph 6.9 mph 57 % 0.00 in
22:22 27.5 °F 15.0 °F 30.47 in NNW 2.1 mph 8.1 mph 59 % 0.00 in
22:23 27.6 °F 15.1 °F 30.24 in NNW 1.8 mph 8.1 mph 59 % 0.00 in
22:24 27.5 °F 14.6 °F 30.25 in NW 7.0 mph 17.3 mph 58 % 0.00 in
22:28 27.5 °F 14.2 °F 30.47 in NW 6.7 mph 11.5 mph 57 % 0.00 in
22:33 27.5 °F 15.0 °F 30.47 in NNW 5.9 mph 11.5 mph 59 % 0.00 in
22:38 27.5 °F 14.6 °F 30.47 in NNW 6.4 mph 12.7 mph 58 % 0.00 in
22:43 27.5 °F 14.2 °F 30.47 in NW 6.1 mph 11.5 mph 57 % 0.00 in
22:48 27.4 °F 14.9 °F 30.46 in NNW 4.0 mph 10.4 mph 59 % 0.00 in
22:53 27.4 °F 15.7 °F 30.47 in NE 2.1 mph 11.5 mph 61 % 0.00 in
22:58 27.4 °F 15.3 °F 30.47 in NNE 4.4 mph 8.1 mph 60 % 0.00 in
23:03 27.4 °F 14.5 °F 30.47 in West 4.8 mph 14.0 mph 58 % 0.00 in
23:08 27.4 °F 15.3 °F 30.47 in North 8.9 mph 11.5 mph 60 % 0.00 in
23:13 27.4 °F 15.7 °F 30.46 in WNW 3.3 mph 6.9 mph 61 % 0.00 in
23:18 27.3 °F 15.2 °F 30.46 in North 7.0 mph 13.0 mph 60 % 0.00 in
23:23 27.3 °F 15.6 °F 30.47 in NE 6.1 mph 11.0 mph 61 % 0.00 in
23:28 27.3 °F 15.2 °F 30.47 in North 7.0 mph 11.5 mph 60 % 0.00 in
23:33 27.3 °F 15.2 °F 30.46 in North 2.5 mph 6.9 mph 60 % 0.00 in
23:38 27.2 °F 15.5 °F 30.47 in WNW 3.3 mph 13.8 mph 61 % 0.00 in
23:43 27.2 °F 15.5 °F 30.47 in NNW 6.4 mph 12.7 mph 61 % 0.00 in
23:48 27.2 °F 15.5 °F 30.47 in NW 6.7 mph 13.8 mph 61 % 0.00 in
23:53 27.2 °F 15.5 °F 30.46 in NNW 4.0 mph 9.2 mph 61 % 0.00 in
23:58 27.2 °F 15.5 °F 30.47 in WNW 4.5 mph 10.4 mph 61 % 0.00 in
Crab Meadow Weather
Compliments of Weather Underground - 3 mb

Script developed by  Jim McMurry - jmcmurry@mwt.net Adapted for the template by  Wim van der Kuil - Leuven-Template.eu

Weather Terms: Tornado Warning - Strong rotation in a thunderstorm is indicated by Doppler radar or a tornado is sighted by skywarn spotters. These warnings are issued on a county by county basis by the local Weather Forecast office in Upton.